Station: Sunshine Coast Airport

  Atmospheric Gas Attenuation - ITU Rec 676-11   --------------- db/100km ---------------
Date Time Temp RH % AH g/m3 Dew Point Wind Direction Speed kph Gust kph Barometer mB Rainfall Since 9am 24GHz 47GHz 76GHz 122GHz 134GHz 241GHz
27 00:50 22.7 91 18.38 21.2 11 13 1011 0 39.9 39.9 76.4 202.2 221.7 769.6
27 00:40 22.7 91 18.38 21.2 7 9 1011 0 39.9 39.9 76.4 202.2 221.7 769.6
27 00:30 22.7 91 18.38 21.2 2 7 1010.9 0 39.9 39.9 76.4 202.2 221.7 769.6
27 00:20 22.7 90 18.18 21 4 6 1011.1 0 39.5 39.5 75.5 199.6 218.6 758.8
27 00:10 22.7 90 18.18 21 7 9 1011.3 0 39.5 39.5 75.5 199.7 218.6 758.9
27 00:00 22.6 89 17.88 20.7 9 11 1011.3 0 38.8 39.0 74.2 196.1 214.2 743.6
26 23:50 23.1 88 18.19 21 7 9 1011.4 0 39.4 39.3 75.1 198.7 217.6 755.5
26 23:40 23.2 85 17.67 20.5 0 0 1011.5 0 38.3 38.3 72.6 192.0 209.3 726.6
26 23:30 23.4 84 17.66 20.5 6 9 1011.5 0 38.3 38.2 72.4 191.3 208.6 724.2
26 23:20 23.9 82 17.74 20.6 9 9 1011.7 0 38.4 38.1 72.3 191.1 208.4 723.7
26 23:10 24.7 80 18.11 21 15 15 1011.5 0 39.1 38.4 73.2 193.6 211.8 735.5
26 23:00 24.6 82 18.46 21.3 17 20 1011.3 0 39.9 39.1 74.9 198.2 217.4 754.9
26 22:50 23.3 86 17.98 20.8 13 15 1011.5 0 39.0 38.8 74.0 195.6 213.8 742.2
26 22:40 23.3 85 17.77 20.6 6 6 1011.8 0 38.5 38.4 73.0 193.0 210.6 731.1
26 22:30 23.7 82 17.54 20.4 9 17 1011.8 0 38.0 37.8 71.5 189.2 206.0 715.1
26 22:20 24.8 79 17.98 20.9 17 19 1011.9 0 38.8 38.2 72.5 191.8 209.6 727.9
26 22:10 24.7 79 17.88 20.8 13 15 1012 0 38.6 38.0 72.2 190.9 208.4 723.6
26 22:00 24.9 79 18.08 21 13 17 1011.9 0 39.0 38.3 72.9 192.8 210.8 732.1
26 21:50 24.9 78 17.85 20.8 17 19 1011.9 0 38.5 37.9 71.8 190.0 207.3 720.1
26 21:40 25.2 78 18.16 21.1 17 17 1011.8 0 39.2 38.3 73.0 193.0 211.2 733.4
26 21:30 25.1 78 18.06 21 15 20 1011.6 0 39.0 38.2 72.6 192.0 209.9 729.0
26 21:20 25.2 77 17.93 20.9 15 17 1011.7 0 38.7 37.9 71.9 190.2 207.7 721.3
26 21:10 25.1 78 18.06 21 19 19 1011.7 0 39.0 38.2 72.6 192.0 209.9 729.1
26 21:00 25.2 78 18.16 21.1 15 19 1011.7 0 39.2 38.3 73.0 193.0 211.1 733.3
26 20:50 25.1 78 18.06 21 19 19 1011.8 0 39.0 38.2 72.6 192.0 209.9 729.1
26 20:40 25.1 78 18.06 21 20 22 1011.7 0 39.0 38.2 72.6 192.0 209.9 729.1
26 20:30 25.2 79 18.39 21.3 17 22 1011.5 0 39.7 38.7 74.0 195.8 214.6 745.3
26 20:20 25.2 78 18.16 21.1 17 19 1011.5 0 39.2 38.3 73.0 193.0 211.1 733.2
26 20:10 25.3 78 18.26 21.2 19 20 1011.4 0 39.4 38.4 73.3 193.9 212.3 737.5
26 20:00 25.4 78 18.36 21.3 17 22 1011.1 0 39.6 38.6 73.7 194.8 213.5 741.6
26 19:50 25.4 79 18.6 21.5 15 20 1011.2 0 40.1 39.0 74.8 197.8 217.2 754.3
26 19:40 25.2 77 17.93 20.9 17 19 1011.1 0 38.7 37.9 71.9 190.1 207.6 721.0
26 19:30 25.4 76 17.89 20.9 19 22 1010.9 0 38.6 37.7 71.5 189.1 206.4 717.0
26 19:20 25.3 77 18.03 21 17 19 1010.9 0 38.9 38.0 72.2 191.0 208.8 725.2
26 19:10 25.4 76 17.89 20.9 15 19 1010.6 0 38.6 37.7 71.5 189.0 206.4 716.8
26 19:00 25.5 76 17.99 21 20 26 1010.4 0 38.8 37.8 71.8 190.0 207.6 721.0
26 18:50 25.6 76 18.09 21.1 24 26 1010.3 0 39.0 37.9 72.2 190.9 208.8 725.1
26 18:40 25.5 77 18.23 21.2 19 20 1010.3 0 39.3 38.2 72.9 192.9 211.1 733.4
26 18:30 25.6 76 18.09 21.1 19 24 1010 0 39.0 37.9 72.2 190.9 208.7 725.0
26 18:20 25.7 76 18.2 21.1 19 20 1010.1 0 39.2 38.1 72.6 192.0 210.1 729.8
26 18:10 25.8 76 18.3 21.2 19 22 1010.1 0 39.4 38.2 72.9 192.9 211.3 734.1
26 18:00 25.9 76 18.4 21.3 17 20 1009.9 0 39.6 38.4 73.3 193.9 212.5 738.2
26 17:50 26.1 74 18.12 21.1 19 20 1009.9 0 39.0 37.7 71.8 190.0 207.8 721.7
26 17:40 26.3 71 17.58 20.8 17 19 1009.8 0 37.8 36.7 69.2 183.0 199.3 692.2
26 17:30 26.5 72 18.02 21 19 20 1009.5 0 38.8 37.4 71.0 187.7 205.1 712.6
26 17:20 26.3 71 17.58 20.8 19 20 1009.5 0 37.8 36.7 69.2 183.0 199.2 692.0
26 17:10 26.7 71 17.97 21 17 19 1009.4 0 38.6 37.2 70.6 186.6 203.9 708.2
26 17:00 27.1 70 18.12 21.2 17 20 1009.2 0 38.9 37.3 70.8 187.4 204.9 712.0
26 16:50 27.3 68 17.79 20.9 20 24 1009.2 0 38.2 36.6 69.2 183.0 199.6 693.5
26 16:40 27.6 68 18.09 21.2 17 20 1009.1 0 38.8 37.0 70.2 185.8 203.1 705.8
26 16:30 27.6 68 18.09 21.2 19 22 1009 0 38.8 37.0 70.2 185.8 203.1 705.8
26 16:20 27.7 69 18.46 21.5 17 19 1009 0 39.6 37.6 71.8 189.9 208.2 723.6
26 16:10 28 67 18.22 21.5 17 20 1009 0 39.0 37.1 70.4 186.4 203.9 708.6
26 16:00 27.8 67 18.02 21.3 19 24 1008.8 0 38.6 36.8 69.7 184.5 201.5 700.3
26 15:50 27.7 68 18.19 21.3 17 20 1008.8 0 39.0 37.1 70.6 186.7 204.3 709.8
26 15:40 28.4 68 18.9 21.9 17 19 1008.8 0 40.4 38.1 73.1 193.4 212.7 739.2
26 15:30 28.1 65 17.78 21.1 19 22 1008.8 0 38.1 36.2 68.4 180.9 197.3 685.6
26 15:20 28.3 69 19.08 22.1 19 22 1009 0 40.8 38.5 74.0 195.8 215.6 749.5
26 15:10 28.2 68 18.7 21.7 19 20 1009 0 40.0 37.8 72.4 191.6 210.4 731.0
26 15:00 28.4 66 18.35 21.4 20 24 1008.9 0 39.3 37.1 70.6 186.9 204.7 711.4
26 14:50 28.2 65 17.87 21 19 22 1009 0 38.3 36.3 68.7 181.8 198.4 689.3
26 14:40 28.3 68 18.8 21.8 19 22 1009.1 0 40.2 38.0 72.8 192.5 211.6 735.2
26 14:30 28.4 69 19.18 22.2 20 26 1009 0 41.0 38.6 74.4 196.8 216.8 753.6
26 14:20 28.2 63 17.32 20.7 22 24 1009.2 0 37.1 35.4 66.3 175.5 190.6 662.2
26 14:10 28.6 65 18.27 21.4 19 20 1009.2 0 39.1 36.9 70.1 185.5 203.1 705.7
26 14:00 28.6 68 19.11 22.1 19 22 1009.1 0 40.8 38.4 73.9 195.5 215.2 748.1
26 13:50 28.4 65 18.07 21.2 20 24 1009.3 0 38.7 36.6 69.4 183.7 200.7 697.6
26 13:40 28.7 68 19.22 22.4 19 20 1009.4 0 41.1 38.6 74.3 196.6 216.6 752.9
26 13:30 28.4 66 18.35 21.4 19 24 1009.5 0 39.3 37.1 70.7 187.0 204.8 711.7
26 13:20 28.4 67 18.63 21.7 19 22 1009.7 0 39.8 37.6 71.9 190.3 208.9 725.9
26 13:10 28.9 68 19.43 22.4 17 20 1009.7 0 41.5 38.9 75.0 198.6 219.2 761.8
26 13:00 28.8 68 19.32 22.5 20 22 1009.7 0 41.3 38.7 74.6 197.5 217.8 757.2
26 12:50 28.6 66 18.55 21.6 20 22 1009.9 0 39.7 37.4 71.4 188.9 207.2 720.1
26 12:40 28.4 67 18.63 21.7 19 20 1010 0 39.8 37.7 72.0 190.4 208.9 726.1
26 12:30 28.5 66 18.45 21.5 19 24 1010 0 39.5 37.3 71.1 188.0 206.0 716.1
26 12:20 28.6 64 17.99 21.1 19 22 1010.2 0 38.5 36.4 69.0 182.4 199.2 692.2
26 12:10 28.4 65 18.07 21.2 19 20 1010.3 0 38.7 36.7 69.5 183.8 200.9 698.1
26 12:00 28.6 65 18.27 21.4 17 22 1010.3 0 39.1 36.9 70.2 185.7 203.2 706.2
26 11:50 28.3 67 18.52 21.6 19 20 1010.5 0 39.6 37.5 71.6 189.4 207.7 721.7
26 11:40 28.3 65 17.97 21.1 17 19 1010.6 0 38.5 36.5 69.2 183.0 199.8 694.1
26 11:30 28.8 68 19.32 22.5 17 20 1010.7 0 41.3 38.7 74.7 197.7 218.0 757.7
26 11:20 28.4 68 18.9 21.9 15 19 1010.9 0 40.4 38.2 73.2 193.7 213.0 740.3
26 11:10 28.7 68 19.22 22.4 17 19 1010.9 0 41.1 38.6 74.4 196.8 216.8 753.7
26 11:00 28.2 68 18.7 21.7 15 20 1010.8 0 40.0 37.9 72.5 191.8 210.6 731.9
26 10:50 28.6 68 19.11 22.3 17 20 1011 0 40.8 38.5 74.0 195.7 215.5 749.1
26 10:40 27.7 71 18.99 22 17 19 1011.1 0 40.7 38.7 74.3 196.6 216.4 751.8
26 10:30 27.6 71 18.89 21.9 15 19 1011.1 0 40.5 38.5 74.0 195.7 215.2 747.6
26 10:20 27.8 70 18.83 21.8 15 17 1011.2 0 40.3 38.3 73.5 194.5 213.7 742.6
26 10:10 28.2 72 19.8 22.7 13 17 1011.2 0 42.3 39.9 77.5 205.2 227.0 788.9
26 10:00 28.1 72 19.69 22.6 13 17 1011.2 0 42.1 39.8 77.1 204.1 225.6 784.2
26 09:50 27.6 70 18.62 21.6 13 17 1011.3 0 39.9 38.0 72.7 192.5 211.2 733.9
26 09:40 27.6 70 18.62 21.6 11 13 1011.4 0 39.9 38.0 72.8 192.5 211.2 733.9
26 09:30 27.6 70 18.62 21.6 13 17 1011.3 0 39.9 38.0 72.7 192.5 211.2 733.9
26 09:20 27.8 72 19.37 22.3 13 15 1011.3 0 41.5 39.3 76.0 201.0 221.8 770.6
26 09:10 27.5 70 18.52 21.5 13 15 1011.3 0 39.7 37.9 72.4 191.5 210.0 729.7
26 09:00 27.3 69 18.06 21.1 11 15 1011.2 0 38.7 37.2 70.5 186.5 203.8 708.1
26 08:50 27.6 69 18.36 21.4 9 13 1011.4 0 39.3 37.6 71.6 189.4 207.4 720.6
26 08:40 27.8 69 18.56 21.6 11 13 1011.3 0 39.8 37.8 72.3 191.2 209.8 728.9
26 08:30 27.6 69 18.36 21.4 9 15 1011.2 0 39.4 37.6 71.6 189.3 207.4 720.5
26 08:20 27.8 75 20.17 23 7 9 1011.3 0 43.1 40.8 79.7 210.9 233.8 812.6

Last Refresh: 27-Feb-2021 01:28:15

Most of the information presented on this site is sourced from the Bureau of Meteorology.  Copyright in all material sourced from the Bureau of Meteorology resides with the Commonwealth of Australia.